| time (UTC) | temp C | wind direction | speed KPH | gust KPH | rain 1hr cm | rain 24hr cm | rain mn cm | humidity % | barometer mb |
| 20260503180750 | 25 | 272 | 3.2 | 8.0 | 0.00 | 0.00 | 0.00 | 33 | 1013.5 |
| 20260503180248 | 24 | 130 | 1.6 | 16.1 | 0.00 | 0.00 | 0.00 | 36 | 1013.8 |
| 20260503175744 | 24 | 263 | 3.2 | 8.0 | 0.00 | 0.00 | 0.00 | 35 | 1013.8 |
| 20260503175243 | 23 | 273 | 8.0 | 17.7 | 0.00 | 0.00 | 0.00 | 38 | 1013.8 |
| 20260503174738 | 23 | 197 | 4.8 | 12.9 | 0.00 | 0.00 | 0.00 | 38 | 1013.9 |
| 20260503174237 | 23 | 247 | 3.2 | 8.0 | 0.00 | 0.00 | 0.00 | 37 | 1013.9 |
| 20260503173737 | 23 | 273 | 3.2 | 6.4 | 0.00 | 0.00 | 0.00 | 38 | 1014.0 |
| 20260503173233 | 23 | 307 | 4.8 | 6.4 | 0.00 | 0.00 | 0.00 | 39 | 1014.0 |
| 20260503172730 | 23 | 178 | 4.8 | 6.4 | 0.00 | 0.00 | 0.00 | 37 | 1014.0 |
| 20260503172227 | 23 | 185 | 6.4 | 6.4 | 0.00 | 0.00 | 0.00 | 37 | 1014.1 |
| 20260503171723 | 22 | 274 | 3.2 | 12.9 | 0.00 | 0.00 | 0.00 | 43 | 1014.1 |
| 20260503171221 | 22 | 266 | 4.8 | 4.8 | 0.00 | 0.00 | 0.00 | 43 | 1014.3 |
| 20260503170718 | 22 | 255 | 3.2 | 9.7 | 0.00 | 0.00 | 0.00 | 42 | 1014.2 |
| 20260503170215 | 22 | 251 | 3.2 | 9.7 | 0.00 | 0.00 | 0.00 | 43 | 1014.2 |
| 20260503160136 | 17 | 275 | 1.6 | 4.8 | 0.00 | 0.00 | 0.00 | 62 | 1014.9 |
| 20260503150606 | 10 | 239 | 3.2 | 3.2 | 0.00 | 0.00 | 0.00 | 91 | 1015.2 |
| 20260503130950 | 7 | 269 | 0.0 | 3.2 | 0.00 | 0.00 | 0.00 | 97 | 1015.3 |
| 20260503130448 | 7 | 191 | 1.6 | 3.2 | 0.00 | 0.00 | 0.00 | 97 | 1015.3 |
| 20260503110332 | 8 | 199 | 3.2 | 4.8 | 0.00 | 0.00 | 0.00 | 94 | 1015.3 |
| 20260503100258 | 9 | 220 | 4.8 | 6.4 | 0.00 | 0.00 | 0.00 | 93 | 1015.3 |
| 20260503090218 | 10 | 257 | 0.0 | 3.2 | 0.00 | 0.00 | 0.00 | 91 | 1015.2 |
| 20260503081145 | 11 | 231 | 3.2 | 6.4 | 0.00 | 0.00 | 0.00 | 88 | 1015.2 |
| 20260503080641 | 11 | 238 | 1.6 | 4.8 | 0.00 | 0.00 | 0.00 | 88 | 1015.2 |
| 20260503080138 | 11 | 254 | 3.2 | 4.8 | 0.00 | 0.00 | 0.00 | 87 | 1015.4 |
| 20260503072615 | 12 | 208 | 4.8 | 6.4 | 0.00 | 0.00 | 0.00 | 86 | 1015.1 |
| 20260503072112 | 12 | 191 | 4.8 | 4.8 | 0.00 | 0.00 | 0.00 | 85 | 1015.1 |
| 20260503071609 | 12 | 207 | 3.2 | 8.0 | 0.00 | 0.00 | 0.00 | 85 | 1015.3 |
| 20260503071105 | 12 | 182 | 4.8 | 8.0 | 0.00 | 0.00 | 0.00 | 85 | 1015.3 |
| 20260503070603 | 12 | 215 | 1.6 | 6.4 | 0.00 | 0.00 | 0.00 | 85 | 1015.3 |
| 20260503055021 | 14 | 234 | 8.0 | 9.7 | 0.00 | 0.00 | 0.00 | 77 | 1014.7 |
| 20260503054517 | 14 | 217 | 6.4 | 8.0 | 0.00 | 0.00 | 0.00 | 78 | 1014.8 |
| 20260503054014 | 14 | 201 | 4.8 | 8.0 | 0.00 | 0.00 | 0.00 | 76 | 1014.8 |
| 20260503053512 | 15 | 236 | 4.8 | 9.7 | 0.00 | 0.00 | 0.00 | 76 | 1014.8 |
| 20260503053010 | 14 | 225 | 8.0 | 8.0 | 0.00 | 0.00 | 0.00 | 76 | 1014.9 |
| 20260503052506 | 14 | 205 | 4.8 | 8.0 | 0.00 | 0.00 | 0.00 | 75 | 1014.8 |
| 20260503052003 | 14 | 212 | 4.8 | 6.4 | 0.00 | 0.00 | 0.00 | 75 | 1014.9 |
| 20260503051458 | 14 | 236 | 4.8 | 6.4 | 0.00 | 0.00 | 0.00 | 75 | 1014.8 |
| 20260503050956 | 15 | 219 | 4.8 | 8.0 | 0.00 | 0.00 | 0.00 | 75 | 1014.8 |
| 20260503050451 | 15 | 211 | 4.8 | 6.4 | 0.00 | 0.00 | 0.00 | 75 | 1014.8 |
| 20260503045949 | 15 | 220 | 6.4 | 8.0 | 0.00 | 0.00 | 0.00 | 74 | 1014.9 |
| 20260503045447 | 15 | 222 | 4.8 | 11.3 | 0.00 | 0.00 | 0.00 | 74 | 1014.8 |
| 20260503044943 | 15 | 221 | 4.8 | 9.7 | 0.00 | 0.00 | 0.00 | 76 | 1014.6 |
| 20260503044440 | 15 | 221 | 6.4 | 8.0 | 0.00 | 0.00 | 0.00 | 76 | 1014.7 |
| 20260503043938 | 15 | 199 | 4.8 | 6.4 | 0.00 | 0.00 | 0.00 | 75 | 1014.8 |
| 20260503043433 | 15 | 217 | 4.8 | 8.0 | 0.00 | 0.00 | 0.00 | 73 | 1014.7 |
| 20260503042930 | 15 | 209 | 4.8 | 6.4 | 0.00 | 0.00 | 0.00 | 70 | 1014.6 |
| 20260503042427 | 15 | 220 | 8.0 | 8.0 | 0.00 | 0.00 | 0.00 | 70 | 1014.6 |
| 20260503041924 | 15 | 213 | 4.8 | 4.8 | 0.00 | 0.00 | 0.00 | 70 | 1014.7 |
| 20260503041420 | 16 | 204 | 4.8 | 4.8 | 0.00 | 0.00 | 0.00 | 69 | 1014.7 |
| 20260503040918 | 16 | 204 | 4.8 | 6.4 | 0.00 | 0.00 | 0.00 | 68 | 1014.7 |
| 20260503040415 | 16 | 221 | 4.8 | 6.4 | 0.00 | 0.00 | 0.00 | 67 | 1014.5 |
| 20260503035912 | 16 | 231 | 6.4 | 6.4 | 0.00 | 0.00 | 0.00 | 69 | 1014.4 |
| 20260503035409 | 16 | 223 | 4.8 | 4.8 | 0.00 | 0.00 | 0.00 | 70 | 1014.3 |
| 20260503034906 | 16 | 228 | 3.2 | 4.8 | 0.00 | 0.00 | 0.00 | 70 | 1014.2 |
| 20260503034404 | 16 | 235 | 4.8 | 4.8 | 0.00 | 0.00 | 0.00 | 68 | 1014.1 |
| 20260503033901 | 17 | 237 | 6.4 | 6.4 | 0.00 | 0.00 | 0.00 | 67 | 1014.1 |
| 20260503033358 | 17 | 243 | 4.8 | 4.8 | 0.00 | 0.00 | 0.00 | 68 | 1014.0 |
| 20260503032856 | 17 | 248 | 4.8 | 4.8 | 0.00 | 0.00 | 0.00 | 69 | 1013.9 |
| 20260503032355 | 17 | 239 | 3.2 | 4.8 | 0.00 | 0.00 | 0.00 | 69 | 1013.8 |
| 20260503031852 | 17 | 249 | 3.2 | 4.8 | 0.00 | 0.00 | 0.00 | 69 | 1013.8 |
| 20260503031350 | 17 | 254 | 3.2 | 4.8 | 0.00 | 0.00 | 0.00 | 65 | 1013.8 |
| 20260503030845 | 18 | 248 | 6.4 | 6.4 | 0.00 | 0.00 | 0.00 | 65 | 1013.7 |
| 20260503030342 | 18 | 250 | 6.4 | 6.4 | 0.00 | 0.00 | 0.00 | 64 | 1013.7 |
| 20260503025839 | 19 | 242 | 4.8 | 4.8 | 0.00 | 0.00 | 0.00 | 62 | 1013.9 |
| 20260503025336 | 19 | 247 | 4.8 | 4.8 | 0.00 | 0.00 | 0.00 | 60 | 1013.8 |
| 20260503024833 | 19 | 245 | 4.8 | 4.8 | 0.00 | 0.00 | 0.00 | 59 | 1013.8 |
| 20260503024330 | 20 | 230 | 6.4 | 8.0 | 0.00 | 0.00 | 0.00 | 56 | 1013.7 |
| 20260503023827 | 20 | 206 | 4.8 | 6.4 | 0.00 | 0.00 | 0.00 | 58 | 1013.6 |
| 20260503023324 | 20 | 236 | 4.8 | 8.0 | 0.00 | 0.00 | 0.00 | 59 | 1013.4 |
| 20260503022820 | 20 | 241 | 4.8 | 6.4 | 0.00 | 0.00 | 0.00 | 60 | 1013.7 |
| 20260503022315 | 20 | 254 | 6.4 | 8.0 | 0.00 | 0.00 | 0.00 | 58 | 1013.5 |
| 20260503021811 | 21 | 262 | 6.4 | 6.4 | 0.00 | 0.00 | 0.00 | 55 | 1013.7 |
| 20260503021308 | 21 | 247 | 6.4 | 8.0 | 0.00 | 0.00 | 0.00 | 52 | 1013.6 |
| 20260503020805 | 21 | 248 | 6.4 | 8.0 | 0.00 | 0.00 | 0.00 | 51 | 1013.5 |
| 20260503020303 | 21 | 240 | 6.4 | 8.0 | 0.00 | 0.00 | 0.00 | 51 | 1013.6 |
| 20260503015759 | 22 | 239 | 8.0 | 8.0 | 0.00 | 0.00 | 0.00 | 50 | 1013.5 |
| 20260503015256 | 22 | 251 | 6.4 | 8.0 | 0.00 | 0.00 | 0.00 | 52 | 1013.5 |
| 20260503014752 | 23 | 237 | 8.0 | 11.3 | 0.00 | 0.00 | 0.00 | 46 | 1013.6 |
| 20260503014250 | 24 | 214 | 4.8 | 8.0 | 0.00 | 0.00 | 0.00 | 45 | 1013.6 |
| 20260503013747 | 24 | 268 | 6.4 | 8.0 | 0.00 | 0.00 | 0.00 | 44 | 1013.5 |
| 20260503013244 | 24 | 267 | 4.8 | 9.7 | 0.00 | 0.00 | 0.00 | 41 | 1013.6 |
| 20260503012741 | 24 | 245 | 8.0 | 11.3 | 0.00 | 0.00 | 0.00 | 42 | 1013.6 |
| 20260503012239 | 24 | 271 | 4.8 | 4.8 | 0.00 | 0.00 | 0.00 | 46 | 1013.6 |
| 20260503011735 | 24 | 290 | 6.4 | 12.9 | 0.00 | 0.00 | 0.00 | 42 | 1013.5 |
| 20260503011233 | 25 | 235 | 6.4 | 8.0 | 0.00 | 0.00 | 0.00 | 42 | 1013.6 |
| 20260503010728 | 24 | 301 | 4.8 | 8.0 | 0.00 | 0.00 | 0.00 | 43 | 1013.6 |
| 20260503010225 | 24 | 246 | 6.4 | 8.0 | 0.00 | 0.00 | 0.00 | 43 | 1013.4 |
| 20260503005723 | 25 | 263 | 4.8 | 9.7 | 0.00 | 0.00 | 0.00 | 43 | 1013.6 |
| 20260503005220 | 25 | 244 | 6.4 | 16.1 | 0.00 | 0.00 | 0.00 | 41 | 1013.4 |
| 20260503004716 | 25 | 243 | 6.4 | 8.0 | 0.00 | 0.00 | 0.00 | 42 | 1013.6 |
| 20260503004215 | 25 | 214 | 0.0 | 4.8 | 0.00 | 0.00 | 0.00 | 42 | 1013.6 |
| 20260503003711 | 25 | 275 | 4.8 | 8.0 | 0.00 | 0.00 | 0.00 | 43 | 1013.7 |
| 20260503003209 | 26 | 235 | 4.8 | 8.0 | 0.00 | 0.00 | 0.00 | 41 | 1013.6 |
| 20260503002705 | 26 | 255 | 3.2 | 9.7 | 0.00 | 0.00 | 0.00 | 39 | 1013.6 |
| 20260503002202 | 26 | 278 | 4.8 | 8.0 | 0.00 | 0.00 | 0.00 | 38 | 1013.5 |
| 20260503001658 | 26 | 226 | 3.2 | 6.4 | 0.00 | 0.00 | 0.00 | 40 | 1013.6 |
| 20260503001155 | 26 | 247 | 4.8 | 4.8 | 0.00 | 0.00 | 0.00 | 40 | 1013.6 |
| 20260503000653 | 26 | 126 | 1.6 | 12.9 | 0.00 | 0.00 | 0.00 | 40 | 1013.6 |
| 20260503000149 | 26 | 172 | 1.6 | 6.4 | 0.00 | 0.00 | 0.00 | 38 | 1013.6 |
| 20260502235646 | 26 | 216 | 6.4 | 6.4 | 0.00 | 0.00 | 0.00 | 39 | 1013.6 |
| 20260502235144 | 27 | 223 | 6.4 | 8.0 | 0.00 | 0.00 | 0.00 | 38 | 1013.7 |
| 20260502234640 | 27 | 229 | 4.8 | 8.0 | 0.00 | 0.00 | 0.00 | 36 | 1013.6 |
| 20260502234138 | 27 | 215 | 4.8 | 12.9 | 0.00 | 0.00 | 0.00 | 36 | 1013.8 |
| 20260502233633 | 27 | 265 | 3.2 | 6.4 | 0.00 | 0.00 | 0.00 | 35 | 1013.9 |
| 20260502233130 | 28 | 206 | 4.8 | 8.0 | 0.00 | 0.00 | 0.00 | 36 | 1013.9 |
| 20260502232626 | 27 | 247 | 9.7 | 9.7 | 0.00 | 0.00 | 0.00 | 37 | 1014.0 |
| 20260502232124 | 27 | 252 | 4.8 | 11.3 | 0.00 | 0.00 | 0.00 | 36 | 1013.7 |
| 20260502231620 | 27 | 250 | 6.4 | 6.4 | 0.00 | 0.00 | 0.00 | 36 | 1013.8 |
| 20260502231118 | 28 | 218 | 8.0 | 9.7 | 0.00 | 0.00 | 0.00 | 33 | 1013.9 |
| 20260502230616 | 28 | 239 | 8.0 | 12.9 | 0.00 | 0.00 | 0.00 | 33 | 1013.9 |
| 20260502230114 | 27 | 214 | 6.4 | 9.7 | 0.00 | 0.00 | 0.00 | 36 | 1014.2 |
| 20260502225609 | 27 | 315 | 8.0 | 9.7 | 0.00 | 0.00 | 0.00 | 39 | 1014.1 |
| 20260502225107 | 27 | 278 | 4.8 | 11.3 | 0.00 | 0.00 | 0.00 | 35 | 1014.2 |
| 20260502224603 | 27 | 264 | 3.2 | 14.5 | 0.00 | 0.00 | 0.00 | 34 | 1014.3 |
| 20260502224100 | 27 | 249 | 8.0 | 9.7 | 0.00 | 0.00 | 0.00 | 36 | 1014.2 |
| 20260502223558 | 27 | 225 | 11.3 | 11.3 | 0.00 | 0.00 | 0.00 | 33 | 1014.2 |
| 20260502223056 | 27 | 224 | 8.0 | 11.3 | 0.00 | 0.00 | 0.00 | 32 | 1014.5 |
| 20260502222553 | 28 | 231 | 4.8 | 6.4 | 0.00 | 0.00 | 0.00 | 31 | 1014.5 |
| 20260502222049 | 28 | 301 | 6.4 | 11.3 | 0.00 | 0.00 | 0.00 | 31 | 1014.4 |
| 20260502221545 | 27 | 245 | 8.0 | 14.5 | 0.00 | 0.00 | 0.00 | 32 | 1014.5 |
| 20260502221043 | 27 | 265 | 8.0 | 9.7 | 0.00 | 0.00 | 0.00 | 32 | 1014.6 |
| 20260502220538 | 27 | 245 | 6.4 | 9.7 | 0.00 | 0.00 | 0.00 | 31 | 1014.7 |
| 20260502220035 | 27 | 232 | 3.2 | 9.7 | 0.00 | 0.00 | 0.00 | 32 | 1014.8 |
| 20260502215532 | 26 | 208 | 6.4 | 11.3 | 0.00 | 0.00 | 0.00 | 32 | 1014.7 |
| 20260502215029 | 27 | 113 | 8.0 | 9.7 | 0.00 | 0.00 | 0.00 | 32 | 1014.8 |
| 20260502214526 | 27 | 165 | 6.4 | 12.9 | 0.00 | 0.00 | 0.00 | 31 | 1014.8 |
| 20260502214024 | 26 | 44 | 0.0 | 8.0 | 0.00 | 0.00 | 0.00 | 32 | 1014.9 |
| 20260502213520 | 26 | 229 | 14.5 | 20.9 | 0.00 | 0.00 | 0.00 | 32 | 1015.0 |
| 20260502213018 | 26 | 234 | 6.4 | 9.7 | 0.00 | 0.00 | 0.00 | 32 | 1015.2 |
| 20260502212517 | 27 | 264 | 8.0 | 11.3 | 0.00 | 0.00 | 0.00 | 34 | 1015.1 |
| 20260502212014 | 26 | 264 | 4.8 | 6.4 | 0.00 | 0.00 | 0.00 | 32 | 1015.1 |
| 20260502211509 | 26 | 234 | 4.8 | 8.0 | 0.00 | 0.00 | 0.00 | 32 | 1015.1 |
| 20260502211007 | 26 | 256 | 8.0 | 11.3 | 0.00 | 0.00 | 0.00 | 34 | 1015.1 |
| 20260502210504 | 26 | 229 | 8.0 | 14.5 | 0.00 | 0.00 | 0.00 | 32 | 1015.0 |
| 20260502210001 | 26 | 262 | 1.6 | 12.9 | 0.00 | 0.00 | 0.00 | 33 | 1015.1 |
| 20260502205456 | 26 | 261 | 0.0 | 8.0 | 0.00 | 0.00 | 0.00 | 35 | 1015.3 |
| 20260502204954 | 26 | 208 | 6.4 | 14.5 | 0.00 | 0.00 | 0.00 | 34 | 1015.2 |
| 20260502204451 | 26 | 257 | 4.8 | 19.3 | 0.00 | 0.00 | 0.00 | 35 | 1015.3 |
| 20260502203949 | 26 | 237 | 6.4 | 6.4 | 0.00 | 0.00 | 0.00 | 36 | 1015.4 |
| 20260502203446 | 26 | 228 | 8.0 | 14.5 | 0.00 | 0.00 | 0.00 | 35 | 1015.2 |
| 20260502202942 | 26 | 323 | 8.0 | 14.5 | 0.00 | 0.00 | 0.00 | 37 | 1015.3 |
| 20260502202439 | 26 | 287 | 4.8 | 14.5 | 0.00 | 0.00 | 0.00 | 37 | 1015.1 |
| 20260502201937 | 26 | 311 | 0.0 | 6.4 | 0.00 | 0.00 | 0.00 | 37 | 1015.4 |
| 20260502201433 | 26 | 284 | 6.4 | 19.3 | 0.00 | 0.00 | 0.00 | 35 | 1015.4 |
| 20260502200930 | 25 | 178 | 8.0 | 14.5 | 0.00 | 0.00 | 0.00 | 33 | 1015.4 |
| 20260502200425 | 25 | 225 | 16.1 | 17.7 | 0.00 | 0.00 | 0.00 | 34 | 1015.3 |
| 20260502195923 | 25 | 19 | 3.2 | 20.9 | 0.00 | 0.00 | 0.00 | 34 | 1015.6 |
| 20260502195420 | 25 | 241 | 4.8 | 17.7 | 0.00 | 0.00 | 0.00 | 35 | 1015.6 |
| 20260502194916 | 25 | 233 | 8.0 | 20.9 | 0.00 | 0.00 | 0.00 | 36 | 1015.6 |
| 20260502194414 | 25 | 191 | 3.2 | 8.0 | 0.00 | 0.00 | 0.00 | 34 | 1015.7 |
| 20260502193909 | 25 | 256 | 12.9 | 14.5 | 0.00 | 0.00 | 0.00 | 36 | 1015.7 |
| 20260502193407 | 25 | 180 | 3.2 | 9.7 | 0.00 | 0.00 | 0.00 | 35 | 1015.7 |
| 20260502192902 | 25 | 263 | 6.4 | 9.7 | 0.00 | 0.00 | 0.00 | 39 | 1015.5 |
| 20260502192359 | 25 | 296 | 6.4 | 16.1 | 0.00 | 0.00 | 0.00 | 37 | 1015.8 |
| 20260502191856 | 25 | 232 | 4.8 | 6.4 | 0.00 | 0.00 | 0.00 | 37 | 1015.7 |
| 20260502191354 | 25 | 258 | 6.4 | 6.4 | 0.00 | 0.00 | 0.00 | 36 | 1015.8 |
| 20260502190851 | 25 | 217 | 6.4 | 12.9 | 0.00 | 0.00 | 0.00 | 37 | 1015.8 |
| 20260502190349 | 24 | 184 | 3.2 | 20.9 | 0.00 | 0.00 | 0.00 | 35 | 1015.9 |
| 20260502185844 | 24 | 127 | 1.6 | 8.0 | 0.00 | 0.00 | 0.00 | 37 | 1015.9 |
| 20260502185340 | 24 | 153 | 6.4 | 9.7 | 0.00 | 0.00 | 0.00 | 35 | 1016.2 |
| 20260502184838 | 24 | 232 | 9.7 | 12.9 | 0.00 | 0.00 | 0.00 | 36 | 1016.2 |
| 20260502184333 | 23 | 182 | 4.8 | 8.0 | 0.00 | 0.00 | 0.00 | 37 | 1016.0 |
| 20260502183830 | 23 | 303 | 9.7 | 14.5 | 0.00 | 0.00 | 0.00 | 39 | 1016.2 |
| 20260502183326 | 23 | 194 | 6.4 | 11.3 | 0.00 | 0.00 | 0.00 | 36 | 1016.3 |
| 20260502182821 | 23 | 176 | 3.2 | 4.8 | 0.00 | 0.00 | 0.00 | 36 | 1016.3 |
| 20260502182316 | 23 | 183 | 4.8 | 8.0 | 0.00 | 0.00 | 0.00 | 36 | 1016.3 |
| 20260502181813 | 23 | 242 | 4.8 | 9.7 | 0.00 | 0.00 | 0.00 | 39 | 1016.4 |
| 20260502181312 | 22 | 322 | 6.4 | 8.0 | 0.00 | 0.00 | 0.00 | 40 | 1016.5 |